sensor_id;sensor_type;location;lat;lon;timestamp;temperature;humidity
16485;DHT22;8353;47.856;12.344;2024-03-08T00:01:09;4.80;99.90
16485;DHT22;8353;47.856;12.344;2024-03-08T00:03:39;4.80;99.90
16485;DHT22;8353;47.856;12.344;2024-03-08T00:06:09;4.90;99.90
16485;DHT22;8353;47.856;12.344;2024-03-08T00:08:40;4.80;99.90
16485;DHT22;8353;47.856;12.344;2024-03-08T00:11:11;4.70;99.90
16485;DHT22;8353;47.856;12.344;2024-03-08T00:13:41;4.80;99.90
16485;DHT22;8353;47.856;12.344;2024-03-08T00:16:12;4.80;99.90
16485;DHT22;8353;47.856;12.344;2024-03-08T00:18:42;4.80;99.90
16485;DHT22;8353;47.856;12.344;2024-03-08T00:21:13;4.80;99.90
16485;DHT22;8353;47.856;12.344;2024-03-08T00:23:44;4.90;99.90
16485;DHT22;8353;47.856;12.344;2024-03-08T00:26:14;4.80;99.90
16485;DHT22;8353;47.856;12.344;2024-03-08T00:28:45;4.90;99.90
16485;DHT22;8353;47.856;12.344;2024-03-08T00:31:17;5.00;99.90
16485;DHT22;8353;47.856;12.344;2024-03-08T00:33:48;5.00;99.90
16485;DHT22;8353;47.856;12.344;2024-03-08T00:36:18;5.10;99.90
16485;DHT22;8353;47.856;12.344;2024-03-08T00:38:49;5.20;99.90
16485;DHT22;8353;47.856;12.344;2024-03-08T00:41:19;5.30;99.90
16485;DHT22;8353;47.856;12.344;2024-03-08T00:43:49;5.40;99.90
16485;DHT22;8353;47.856;12.344;2024-03-08T00:46:20;5.30;99.90
16485;DHT22;8353;47.856;12.344;2024-03-08T00:48:51;5.30;99.90
16485;DHT22;8353;47.856;12.344;2024-03-08T00:51:22;5.30;99.90
16485;DHT22;8353;47.856;12.344;2024-03-08T00:53:52;5.30;99.90
16485;DHT22;8353;47.856;12.344;2024-03-08T00:56:23;5.20;99.90
16485;DHT22;8353;47.856;12.344;2024-03-08T00:58:53;5.10;99.90
16485;DHT22;8353;47.856;12.344;2024-03-08T01:01:25;5.20;99.90
16485;DHT22;8353;47.856;12.344;2024-03-08T01:03:55;5.10;99.90
16485;DHT22;8353;47.856;12.344;2024-03-08T01:06:27;5.10;99.90
16485;DHT22;8353;47.856;12.344;2024-03-08T01:08:58;5.10;99.90
16485;DHT22;8353;47.856;12.344;2024-03-08T01:11:28;5.20;99.90
16485;DHT22;8353;47.856;12.344;2024-03-08T01:13:58;5.20;99.90
16485;DHT22;8353;47.856;12.344;2024-03-08T01:16:30;5.20;99.90
16485;DHT22;8353;47.856;12.344;2024-03-08T01:19:02;5.20;99.90
16485;DHT22;8353;47.856;12.344;2024-03-08T01:21:33;5.30;99.90
16485;DHT22;8353;47.856;12.344;2024-03-08T01:24:04;5.30;99.90
16485;DHT22;8353;47.856;12.344;2024-03-08T01:26:34;5.20;99.90
16485;DHT22;8353;47.856;12.344;2024-03-08T01:29:04;5.20;99.90
16485;DHT22;8353;47.856;12.344;2024-03-08T01:31:36;5.10;99.90
16485;DHT22;8353;47.856;12.344;2024-03-08T01:34:07;5.00;99.90
16485;DHT22;8353;47.856;12.344;2024-03-08T01:36:37;4.90;99.90
16485;DHT22;8353;47.856;12.344;2024-03-08T01:39:08;4.90;99.90
16485;DHT22;8353;47.856;12.344;2024-03-08T01:41:38;4.90;99.90
16485;DHT22;8353;47.856;12.344;2024-03-08T01:44:11;4.80;99.90
16485;DHT22;8353;47.856;12.344;2024-03-08T01:46:46;4.70;99.90
16485;DHT22;8353;47.856;12.344;2024-03-08T01:49:17;4.60;99.90
16485;DHT22;8353;47.856;12.344;2024-03-08T01:51:49;4.30;99.90
16485;DHT22;8353;47.856;12.344;2024-03-08T01:54:21;4.20;99.90
16485;DHT22;8353;47.856;12.344;2024-03-08T01:56:51;4.20;99.90
16485;DHT22;8353;47.856;12.344;2024-03-08T01:59:23;4.10;99.90
16485;DHT22;8353;47.856;12.344;2024-03-08T02:01:55;4.00;99.90
16485;DHT22;8353;47.856;12.344;2024-03-08T02:04:30;4.00;99.90
16485;DHT22;8353;47.856;12.344;2024-03-08T02:07:00;3.90;99.90
16485;DHT22;8353;47.856;12.344;2024-03-08T02:09:31;4.00;99.90
16485;DHT22;8353;47.856;12.344;2024-03-08T02:12:04;3.80;99.90
16485;DHT22;8353;47.856;12.344;2024-03-08T02:14:35;3.80;99.90
16485;DHT22;8353;47.856;12.344;2024-03-08T02:17:07;3.80;99.90
16485;DHT22;8353;47.856;12.344;2024-03-08T02:19:42;3.80;99.90
16485;DHT22;8353;47.856;12.344;2024-03-08T02:22:14;3.70;99.90
16485;DHT22;8353;47.856;12.344;2024-03-08T02:24:45;3.70;99.90
16485;DHT22;8353;47.856;12.344;2024-03-08T02:27:15;3.70;99.90
16485;DHT22;8353;47.856;12.344;2024-03-08T02:29:55;3.80;99.90
16485;DHT22;8353;47.856;12.344;2024-03-08T02:32:26;4.10;99.90
16485;DHT22;8353;47.856;12.344;2024-03-08T02:34:57;4.20;99.90
16485;DHT22;8353;47.856;12.344;2024-03-08T02:37:30;4.40;99.90
16485;DHT22;8353;47.856;12.344;2024-03-08T02:40:00;4.30;99.90
16485;DHT22;8353;47.856;12.344;2024-03-08T02:42:31;4.20;99.90
16485;DHT22;8353;47.856;12.344;2024-03-08T02:45:01;4.20;99.90
16485;DHT22;8353;47.856;12.344;2024-03-08T02:47:34;4.30;99.90
16485;DHT22;8353;47.856;12.344;2024-03-08T02:50:05;4.20;99.90
16485;DHT22;8353;47.856;12.344;2024-03-08T02:52:38;4.20;99.90
16485;DHT22;8353;47.856;12.344;2024-03-08T02:55:10;4.10;99.90
16485;DHT22;8353;47.856;12.344;2024-03-08T02:57:44;4.10;99.90
16485;DHT22;8353;47.856;12.344;2024-03-08T03:00:17;4.00;99.90
16485;DHT22;8353;47.856;12.344;2024-03-08T03:02:48;4.00;99.90
16485;DHT22;8353;47.856;12.344;2024-03-08T03:05:21;3.70;99.90
16485;DHT22;8353;47.856;12.344;2024-03-08T03:07:52;3.70;99.90
16485;DHT22;8353;47.856;12.344;2024-03-08T03:10:23;3.70;99.90
16485;DHT22;8353;47.856;12.344;2024-03-08T03:12:54;3.80;99.90
16485;DHT22;8353;47.856;12.344;2024-03-08T03:15:24;4.00;99.90
16485;DHT22;8353;47.856;12.344;2024-03-08T03:17:54;4.10;99.90
16485;DHT22;8353;47.856;12.344;2024-03-08T03:20:24;4.10;99.90
16485;DHT22;8353;47.856;12.344;2024-03-08T03:23:03;4.10;99.90
16485;DHT22;8353;47.856;12.344;2024-03-08T03:25:34;4.20;99.90
16485;DHT22;8353;47.856;12.344;2024-03-08T03:28:05;3.90;99.90
16485;DHT22;8353;47.856;12.344;2024-03-08T03:30:36;3.80;99.90
16485;DHT22;8353;47.856;12.344;2024-03-08T03:33:08;3.60;99.90
16485;DHT22;8353;47.856;12.344;2024-03-08T03:35:39;3.50;99.90
16485;DHT22;8353;47.856;12.344;2024-03-08T03:38:19;3.60;99.90
16485;DHT22;8353;47.856;12.344;2024-03-08T03:40:52;3.60;99.90
16485;DHT22;8353;47.856;12.344;2024-03-08T03:43:25;3.60;99.90
16485;DHT22;8353;47.856;12.344;2024-03-08T03:45:56;3.70;99.90
16485;DHT22;8353;47.856;12.344;2024-03-08T03:48:26;3.70;99.90
16485;DHT22;8353;47.856;12.344;2024-03-08T03:50:56;3.60;99.90
16485;DHT22;8353;47.856;12.344;2024-03-08T03:53:28;3.70;99.90
16485;DHT22;8353;47.856;12.344;2024-03-08T03:55:59;3.80;99.90
16485;DHT22;8353;47.856;12.344;2024-03-08T03:58:29;3.90;99.90
16485;DHT22;8353;47.856;12.344;2024-03-08T04:00:59;3.80;99.90
16485;DHT22;8353;47.856;12.344;2024-03-08T04:03:29;3.90;99.90
16485;DHT22;8353;47.856;12.344;2024-03-08T04:06:00;3.90;99.90
16485;DHT22;8353;47.856;12.344;2024-03-08T04:08:32;3.80;99.90
16485;DHT22;8353;47.856;12.344;2024-03-08T04:11:03;3.80;99.90
16485;DHT22;8353;47.856;12.344;2024-03-08T04:13:33;3.70;99.90
16485;DHT22;8353;47.856;12.344;2024-03-08T04:16:05;3.50;99.90
16485;DHT22;8353;47.856;12.344;2024-03-08T04:18:37;3.40;99.90
16485;DHT22;8353;47.856;12.344;2024-03-08T04:21:07;3.50;99.90
16485;DHT22;8353;47.856;12.344;2024-03-08T04:23:39;3.60;99.90
16485;DHT22;8353;47.856;12.344;2024-03-08T04:26:10;3.60;99.90
16485;DHT22;8353;47.856;12.344;2024-03-08T04:28:40;3.60;99.90
16485;DHT22;8353;47.856;12.344;2024-03-08T04:31:10;3.60;99.90
16485;DHT22;8353;47.856;12.344;2024-03-08T04:33:41;3.40;99.90
16485;DHT22;8353;47.856;12.344;2024-03-08T04:36:14;3.40;99.90
16485;DHT22;8353;47.856;12.344;2024-03-08T04:38:46;3.40;99.90
16485;DHT22;8353;47.856;12.344;2024-03-08T04:41:17;3.60;99.90
16485;DHT22;8353;47.856;12.344;2024-03-08T04:43:47;3.70;99.90
16485;DHT22;8353;47.856;12.344;2024-03-08T04:46:17;3.90;99.90
16485;DHT22;8353;47.856;12.344;2024-03-08T04:48:48;3.90;99.90
16485;DHT22;8353;47.856;12.344;2024-03-08T04:51:19;4.00;99.90
16485;DHT22;8353;47.856;12.344;2024-03-08T04:53:51;4.10;99.90
16485;DHT22;8353;47.856;12.344;2024-03-08T04:56:20;4.10;99.90
16485;DHT22;8353;47.856;12.344;2024-03-08T04:58:51;4.10;99.90
16485;DHT22;8353;47.856;12.344;2024-03-08T05:01:22;4.10;99.90
16485;DHT22;8353;47.856;12.344;2024-03-08T05:03:52;4.00;99.90
16485;DHT22;8353;47.856;12.344;2024-03-08T05:06:24;3.80;99.90
16485;DHT22;8353;47.856;12.344;2024-03-08T05:08:55;3.70;99.90
16485;DHT22;8353;47.856;12.344;2024-03-08T05:11:25;3.60;99.90
16485;DHT22;8353;47.856;12.344;2024-03-08T05:13:56;3.60;99.90
16485;DHT22;8353;47.856;12.344;2024-03-08T05:16:28;3.50;99.90
16485;DHT22;8353;47.856;12.344;2024-03-08T05:18:58;3.60;99.90
16485;DHT22;8353;47.856;12.344;2024-03-08T05:21:29;3.60;99.90
16485;DHT22;8353;47.856;12.344;2024-03-08T05:24:01;3.80;99.90
16485;DHT22;8353;47.856;12.344;2024-03-08T05:26:31;3.80;99.90
16485;DHT22;8353;47.856;12.344;2024-03-08T05:29:02;3.70;99.90
16485;DHT22;8353;47.856;12.344;2024-03-08T05:31:38;3.80;99.90
16485;DHT22;8353;47.856;12.344;2024-03-08T05:34:09;3.80;99.90
16485;DHT22;8353;47.856;12.344;2024-03-08T05:36:39;3.80;99.90
16485;DHT22;8353;47.856;12.344;2024-03-08T05:39:10;3.70;99.90
16485;DHT22;8353;47.856;12.344;2024-03-08T05:41:41;3.70;99.90
16485;DHT22;8353;47.856;12.344;2024-03-08T05:44:15;3.50;99.90
16485;DHT22;8353;47.856;12.344;2024-03-08T05:46:46;3.30;99.90
16485;DHT22;8353;47.856;12.344;2024-03-08T05:49:17;3.30;99.90
16485;DHT22;8353;47.856;12.344;2024-03-08T05:51:47;3.20;99.90
16485;DHT22;8353;47.856;12.344;2024-03-08T05:54:19;3.20;99.90
16485;DHT22;8353;47.856;12.344;2024-03-08T05:56:51;3.20;99.90
16485;DHT22;8353;47.856;12.344;2024-03-08T05:59:21;3.30;99.90
16485;DHT22;8353;47.856;12.344;2024-03-08T06:01:52;3.40;99.90
16485;DHT22;8353;47.856;12.344;2024-03-08T06:04:23;3.30;99.90
16485;DHT22;8353;47.856;12.344;2024-03-08T06:06:54;3.20;99.90
16485;DHT22;8353;47.856;12.344;2024-03-08T06:09:27;3.30;99.90
16485;DHT22;8353;47.856;12.344;2024-03-08T06:11:58;3.40;99.90
16485;DHT22;8353;47.856;12.344;2024-03-08T06:14:28;3.40;99.90
16485;DHT22;8353;47.856;12.344;2024-03-08T06:16:58;3.40;99.90
16485;DHT22;8353;47.856;12.344;2024-03-08T06:19:29;3.70;99.90
16485;DHT22;8353;47.856;12.344;2024-03-08T06:21:59;4.40;99.90
16485;DHT22;8353;47.856;12.344;2024-03-08T06:24:35;5.00;99.90
16485;DHT22;8353;47.856;12.344;2024-03-08T06:27:07;5.30;99.90
16485;DHT22;8353;47.856;12.344;2024-03-08T06:29:38;5.70;99.90
16485;DHT22;8353;47.856;12.344;2024-03-08T06:32:09;6.10;99.90
16485;DHT22;8353;47.856;12.344;2024-03-08T06:34:38;6.20;99.90
16485;DHT22;8353;47.856;12.344;2024-03-08T06:37:09;6.70;99.90
16485;DHT22;8353;47.856;12.344;2024-03-08T06:39:40;7.10;99.90
16485;DHT22;8353;47.856;12.344;2024-03-08T06:42:10;7.50;99.90
16485;DHT22;8353;47.856;12.344;2024-03-08T06:44:41;8.00;99.90
16485;DHT22;8353;47.856;12.344;2024-03-08T06:47:18;8.30;99.90
16485;DHT22;8353;47.856;12.344;2024-03-08T06:49:48;8.30;99.90
16485;DHT22;8353;47.856;12.344;2024-03-08T06:52:18;8.40;99.90
16485;DHT22;8353;47.856;12.344;2024-03-08T06:54:50;8.40;99.90
16485;DHT22;8353;47.856;12.344;2024-03-08T06:57:21;8.30;99.90
16485;DHT22;8353;47.856;12.344;2024-03-08T06:59:52;8.30;99.90
16485;DHT22;8353;47.856;12.344;2024-03-08T07:02:23;8.30;99.90
16485;DHT22;8353;47.856;12.344;2024-03-08T07:04:54;8.10;99.90
16485;DHT22;8353;47.856;12.344;2024-03-08T07:07:25;7.90;99.90
16485;DHT22;8353;47.856;12.344;2024-03-08T07:09:57;7.60;99.90
16485;DHT22;8353;47.856;12.344;2024-03-08T07:12:27;7.20;99.90
16485;DHT22;8353;47.856;12.344;2024-03-08T07:14:57;7.00;99.90
16485;DHT22;8353;47.856;12.344;2024-03-08T07:17:27;6.70;99.90
16485;DHT22;8353;47.856;12.344;2024-03-08T07:19:58;6.50;99.90
16485;DHT22;8353;47.856;12.344;2024-03-08T07:22:28;6.20;99.90
16485;DHT22;8353;47.856;12.344;2024-03-08T07:25:00;6.10;99.90
16485;DHT22;8353;47.856;12.344;2024-03-08T07:27:49;6.10;99.90
16485;DHT22;8353;47.856;12.344;2024-03-08T07:30:21;6.10;99.90
16485;DHT22;8353;47.856;12.344;2024-03-08T07:33:10;6.00;99.90
16485;DHT22;8353;47.856;12.344;2024-03-08T07:35:41;5.90;99.90
16485;DHT22;8353;47.856;12.344;2024-03-08T07:38:13;5.90;99.90
16485;DHT22;8353;47.856;12.344;2024-03-08T07:40:45;6.00;99.90
16485;DHT22;8353;47.856;12.344;2024-03-08T07:43:17;6.00;99.90
16485;DHT22;8353;47.856;12.344;2024-03-08T07:45:47;6.10;99.90
16485;DHT22;8353;47.856;12.344;2024-03-08T07:48:17;5.80;99.90
16485;DHT22;8353;47.856;12.344;2024-03-08T07:50:49;5.60;99.90
16485;DHT22;8353;47.856;12.344;2024-03-08T07:53:20;5.70;99.90
16485;DHT22;8353;47.856;12.344;2024-03-08T07:55:51;5.90;99.90
16485;DHT22;8353;47.856;12.344;2024-03-08T07:58:22;5.90;99.90
16485;DHT22;8353;47.856;12.344;2024-03-08T08:01:03;5.90;99.90
16485;DHT22;8353;47.856;12.344;2024-03-08T08:03:33;6.00;99.90
16485;DHT22;8353;47.856;12.344;2024-03-08T08:06:04;6.20;99.90
16485;DHT22;8353;47.856;12.344;2024-03-08T08:08:36;6.50;99.90
16485;DHT22;8353;47.856;12.344;2024-03-08T08:11:08;6.60;99.90
16485;DHT22;8353;47.856;12.344;2024-03-08T08:13:40;6.80;99.90
16485;DHT22;8353;47.856;12.344;2024-03-08T08:16:11;6.50;99.90
16485;DHT22;8353;47.856;12.344;2024-03-08T08:18:42;6.70;99.90
16485;DHT22;8353;47.856;12.344;2024-03-08T08:21:13;6.80;99.90
16485;DHT22;8353;47.856;12.344;2024-03-08T08:23:43;6.90;99.90
16485;DHT22;8353;47.856;12.344;2024-03-08T08:26:14;6.90;99.90
16485;DHT22;8353;47.856;12.344;2024-03-08T08:28:45;6.90;99.90
16485;DHT22;8353;47.856;12.344;2024-03-08T08:31:16;7.00;99.90
16485;DHT22;8353;47.856;12.344;2024-03-08T08:33:46;6.90;99.90
16485;DHT22;8353;47.856;12.344;2024-03-08T08:36:18;6.90;99.90
16485;DHT22;8353;47.856;12.344;2024-03-08T08:38:48;6.90;99.90
16485;DHT22;8353;47.856;12.344;2024-03-08T08:41:20;6.90;99.90
16485;DHT22;8353;47.856;12.344;2024-03-08T08:43:50;7.10;99.90
16485;DHT22;8353;47.856;12.344;2024-03-08T08:46:20;7.10;99.90
16485;DHT22;8353;47.856;12.344;2024-03-08T08:48:51;7.30;99.90
16485;DHT22;8353;47.856;12.344;2024-03-08T08:51:21;7.10;99.90
16485;DHT22;8353;47.856;12.344;2024-03-08T08:53:53;7.00;99.90
16485;DHT22;8353;47.856;12.344;2024-03-08T08:56:26;7.20;99.90
16485;DHT22;8353;47.856;12.344;2024-03-08T08:58:57;7.50;99.90
16485;DHT22;8353;47.856;12.344;2024-03-08T09:01:27;7.50;99.90
16485;DHT22;8353;47.856;12.344;2024-03-08T09:03:58;7.40;99.90
16485;DHT22;8353;47.856;12.344;2024-03-08T09:06:29;7.20;99.90
16485;DHT22;8353;47.856;12.344;2024-03-08T09:08:59;7.40;99.90
16485;DHT22;8353;47.856;12.344;2024-03-08T09:11:31;7.60;99.90
16485;DHT22;8353;47.856;12.344;2024-03-08T09:14:02;7.80;99.90
16485;DHT22;8353;47.856;12.344;2024-03-08T09:16:33;7.90;99.90
16485;DHT22;8353;47.856;12.344;2024-03-08T09:19:04;7.90;99.90
16485;DHT22;8353;47.856;12.344;2024-03-08T09:21:35;8.20;99.90
16485;DHT22;8353;47.856;12.344;2024-03-08T09:24:06;8.30;99.90
16485;DHT22;8353;47.856;12.344;2024-03-08T09:26:38;8.20;99.90
16485;DHT22;8353;47.856;12.344;2024-03-08T09:29:10;8.40;99.90
16485;DHT22;8353;47.856;12.344;2024-03-08T09:31:41;8.60;99.90
16485;DHT22;8353;47.856;12.344;2024-03-08T09:34:11;8.30;99.90
16485;DHT22;8353;47.856;12.344;2024-03-08T09:36:43;8.40;99.90
16485;DHT22;8353;47.856;12.344;2024-03-08T09:39:13;8.40;99.90
16485;DHT22;8353;47.856;12.344;2024-03-08T09:41:47;8.50;99.90
16485;DHT22;8353;47.856;12.344;2024-03-08T09:44:17;8.50;99.90
16485;DHT22;8353;47.856;12.344;2024-03-08T09:46:48;8.20;99.90
16485;DHT22;8353;47.856;12.344;2024-03-08T09:49:20;8.40;99.90
16485;DHT22;8353;47.856;12.344;2024-03-08T09:51:51;8.30;99.90
16485;DHT22;8353;47.856;12.344;2024-03-08T09:54:22;8.50;99.90
16485;DHT22;8353;47.856;12.344;2024-03-08T09:56:55;8.40;99.90
16485;DHT22;8353;47.856;12.344;2024-03-08T09:59:32;8.30;99.90
16485;DHT22;8353;47.856;12.344;2024-03-08T10:02:14;8.50;99.90
16485;DHT22;8353;47.856;12.344;2024-03-08T10:04:48;8.70;99.90
16485;DHT22;8353;47.856;12.344;2024-03-08T10:07:19;9.10;99.90
16485;DHT22;8353;47.856;12.344;2024-03-08T10:09:51;9.30;99.90
16485;DHT22;8353;47.856;12.344;2024-03-08T10:12:24;9.50;99.90
16485;DHT22;8353;47.856;12.344;2024-03-08T10:14:56;9.40;99.90
16485;DHT22;8353;47.856;12.344;2024-03-08T10:17:28;9.30;99.90
16485;DHT22;8353;47.856;12.344;2024-03-08T10:20:01;9.00;99.90
16485;DHT22;8353;47.856;12.344;2024-03-08T10:22:44;9.10;99.90
16485;DHT22;8353;47.856;12.344;2024-03-08T10:25:14;9.30;99.90
16485;DHT22;8353;47.856;12.344;2024-03-08T10:27:46;9.20;99.90
16485;DHT22;8353;47.856;12.344;2024-03-08T10:30:17;9.40;99.90
16485;DHT22;8353;47.856;12.344;2024-03-08T10:32:49;9.50;99.90
16485;DHT22;8353;47.856;12.344;2024-03-08T10:35:20;9.70;99.90
16485;DHT22;8353;47.856;12.344;2024-03-08T10:37:51;9.60;99.90
16485;DHT22;8353;47.856;12.344;2024-03-08T10:40:28;9.90;99.90
16485;DHT22;8353;47.856;12.344;2024-03-08T10:43:00;10.00;99.90
16485;DHT22;8353;47.856;12.344;2024-03-08T10:45:35;9.90;99.90
16485;DHT22;8353;47.856;12.344;2024-03-08T10:48:21;9.90;99.90
16485;DHT22;8353;47.856;12.344;2024-03-08T10:50:57;9.90;99.90
16485;DHT22;8353;47.856;12.344;2024-03-08T10:53:28;10.00;99.90
16485;DHT22;8353;47.856;12.344;2024-03-08T10:55:59;10.00;99.90
16485;DHT22;8353;47.856;12.344;2024-03-08T10:58:34;10.20;99.90
16485;DHT22;8353;47.856;12.344;2024-03-08T11:01:05;10.10;99.90
16485;DHT22;8353;47.856;12.344;2024-03-08T11:03:49;10.20;99.90
16485;DHT22;8353;47.856;12.344;2024-03-08T11:09:27;10.30;99.90
16485;DHT22;8353;47.856;12.344;2024-03-08T11:12:35;10.10;99.90
16485;DHT22;8353;47.856;12.344;2024-03-08T11:15:12;10.20;99.90
16485;DHT22;8353;47.856;12.344;2024-03-08T11:17:47;10.30;99.90
16485;DHT22;8353;47.856;12.344;2024-03-08T11:20:18;10.40;99.90
16485;DHT22;8353;47.856;12.344;2024-03-08T11:22:52;10.70;99.90
16485;DHT22;8353;47.856;12.344;2024-03-08T11:25:34;10.70;99.90
16485;DHT22;8353;47.856;12.344;2024-03-08T11:28:17;10.50;99.90
16485;DHT22;8353;47.856;12.344;2024-03-08T11:31:24;10.30;99.90
16485;DHT22;8353;47.856;12.344;2024-03-08T11:33:56;10.80;99.90
16485;DHT22;8353;47.856;12.344;2024-03-08T11:36:26;10.90;99.90
16485;DHT22;8353;47.856;12.344;2024-03-08T11:38:59;10.90;99.90
16485;DHT22;8353;47.856;12.344;2024-03-08T11:41:38;11.20;99.90
16485;DHT22;8353;47.856;12.344;2024-03-08T11:44:10;11.20;99.90
16485;DHT22;8353;47.856;12.344;2024-03-08T11:46:46;11.20;99.90
16485;DHT22;8353;47.856;12.344;2024-03-08T11:49:17;11.20;99.90
16485;DHT22;8353;47.856;12.344;2024-03-08T11:51:51;11.20;99.90
16485;DHT22;8353;47.856;12.344;2024-03-08T11:54:22;11.50;99.90
16485;DHT22;8353;47.856;12.344;2024-03-08T11:56:53;11.80;99.90
16485;DHT22;8353;47.856;12.344;2024-03-08T11:59:24;11.80;99.90
16485;DHT22;8353;47.856;12.344;2024-03-08T12:02:01;11.90;99.90
16485;DHT22;8353;47.856;12.344;2024-03-08T12:04:35;11.90;99.90
16485;DHT22;8353;47.856;12.344;2024-03-08T12:07:17;11.90;99.90
16485;DHT22;8353;47.856;12.344;2024-03-08T12:10:15;11.90;99.90
16485;DHT22;8353;47.856;12.344;2024-03-08T12:12:46;11.60;99.90
16485;DHT22;8353;47.856;12.344;2024-03-08T12:15:17;11.70;99.90
16485;DHT22;8353;47.856;12.344;2024-03-08T12:17:50;11.90;99.90
16485;DHT22;8353;47.856;12.344;2024-03-08T12:20:23;12.10;99.90
16485;DHT22;8353;47.856;12.344;2024-03-08T12:22:54;12.10;99.90
16485;DHT22;8353;47.856;12.344;2024-03-08T12:25:30;12.10;99.90
16485;DHT22;8353;47.856;12.344;2024-03-08T12:28:08;12.20;99.90
16485;DHT22;8353;47.856;12.344;2024-03-08T12:30:47;12.30;99.90
16485;DHT22;8353;47.856;12.344;2024-03-08T12:33:19;12.40;99.90
16485;DHT22;8353;47.856;12.344;2024-03-08T12:35:53;12.40;99.90
16485;DHT22;8353;47.856;12.344;2024-03-08T12:38:24;12.50;99.90
16485;DHT22;8353;47.856;12.344;2024-03-08T12:40:58;12.40;99.90
16485;DHT22;8353;47.856;12.344;2024-03-08T12:43:29;12.40;99.90
16485;DHT22;8353;47.856;12.344;2024-03-08T12:46:00;12.40;99.90
16485;DHT22;8353;47.856;12.344;2024-03-08T12:48:35;12.50;99.90
16485;DHT22;8353;47.856;12.344;2024-03-08T12:51:09;12.60;99.90
16485;DHT22;8353;47.856;12.344;2024-03-08T12:53:40;12.70;99.90
16485;DHT22;8353;47.856;12.344;2024-03-08T12:56:16;12.70;99.90
16485;DHT22;8353;47.856;12.344;2024-03-08T12:58:49;12.70;99.90
16485;DHT22;8353;47.856;12.344;2024-03-08T13:01:22;12.40;99.90
16485;DHT22;8353;47.856;12.344;2024-03-08T13:03:54;12.40;99.90
16485;DHT22;8353;47.856;12.344;2024-03-08T13:06:25;12.60;99.90
16485;DHT22;8353;47.856;12.344;2024-03-08T13:08:55;12.80;99.90
16485;DHT22;8353;47.856;12.344;2024-03-08T13:11:25;12.70;99.90
16485;DHT22;8353;47.856;12.344;2024-03-08T13:13:56;12.70;99.90
16485;DHT22;8353;47.856;12.344;2024-03-08T13:16:28;12.50;99.90
16485;DHT22;8353;47.856;12.344;2024-03-08T13:19:00;12.40;99.90
16485;DHT22;8353;47.856;12.344;2024-03-08T13:21:31;12.50;99.90
16485;DHT22;8353;47.856;12.344;2024-03-08T13:24:01;12.60;99.90
16485;DHT22;8353;47.856;12.344;2024-03-08T13:26:32;12.80;99.90
16485;DHT22;8353;47.856;12.344;2024-03-08T13:29:03;12.90;99.90
16485;DHT22;8353;47.856;12.344;2024-03-08T13:31:35;12.90;99.90
16485;DHT22;8353;47.856;12.344;2024-03-08T13:34:07;12.90;99.90
16485;DHT22;8353;47.856;12.344;2024-03-08T13:36:40;12.90;99.90
16485;DHT22;8353;47.856;12.344;2024-03-08T13:39:13;12.70;99.90
16485;DHT22;8353;47.856;12.344;2024-03-08T13:41:45;12.80;99.90
16485;DHT22;8353;47.856;12.344;2024-03-08T13:44:15;12.90;99.90
16485;DHT22;8353;47.856;12.344;2024-03-08T13:46:47;12.80;99.90
16485;DHT22;8353;47.856;12.344;2024-03-08T13:49:21;13.00;99.90
16485;DHT22;8353;47.856;12.344;2024-03-08T13:51:51;13.10;99.90
16485;DHT22;8353;47.856;12.344;2024-03-08T13:54:23;13.30;99.90
16485;DHT22;8353;47.856;12.344;2024-03-08T13:56:54;13.50;99.90
16485;DHT22;8353;47.856;12.344;2024-03-08T13:59:24;13.40;99.90
16485;DHT22;8353;47.856;12.344;2024-03-08T14:01:59;13.50;99.90
16485;DHT22;8353;47.856;12.344;2024-03-08T14:04:38;13.70;99.90
16485;DHT22;8353;47.856;12.344;2024-03-08T14:07:10;13.40;99.90
16485;DHT22;8353;47.856;12.344;2024-03-08T14:09:40;13.70;99.90
16485;DHT22;8353;47.856;12.344;2024-03-08T14:12:14;13.60;99.90
16485;DHT22;8353;47.856;12.344;2024-03-08T14:14:44;13.40;99.90
16485;DHT22;8353;47.856;12.344;2024-03-08T14:17:14;13.40;99.90
16485;DHT22;8353;47.856;12.344;2024-03-08T14:19:47;13.30;99.90
16485;DHT22;8353;47.856;12.344;2024-03-08T14:22:19;13.30;99.90
16485;DHT22;8353;47.856;12.344;2024-03-08T14:24:50;13.40;99.90
16485;DHT22;8353;47.856;12.344;2024-03-08T14:27:21;13.50;99.90
16485;DHT22;8353;47.856;12.344;2024-03-08T14:29:52;13.60;99.90
16485;DHT22;8353;47.856;12.344;2024-03-08T14:32:24;13.70;99.90
16485;DHT22;8353;47.856;12.344;2024-03-08T14:34:55;13.60;99.90
16485;DHT22;8353;47.856;12.344;2024-03-08T14:37:27;13.60;99.90
16485;DHT22;8353;47.856;12.344;2024-03-08T14:39:58;13.60;99.90
16485;DHT22;8353;47.856;12.344;2024-03-08T14:42:30;13.80;99.90
16485;DHT22;8353;47.856;12.344;2024-03-08T14:45:01;14.00;99.90
16485;DHT22;8353;47.856;12.344;2024-03-08T14:47:33;13.90;99.90
16485;DHT22;8353;47.856;12.344;2024-03-08T14:50:06;13.80;99.90
16485;DHT22;8353;47.856;12.344;2024-03-08T14:52:36;13.70;99.90
16485;DHT22;8353;47.856;12.344;2024-03-08T14:55:09;13.80;99.90
16485;DHT22;8353;47.856;12.344;2024-03-08T14:57:42;13.90;99.90
16485;DHT22;8353;47.856;12.344;2024-03-08T15:00:15;14.00;99.90
16485;DHT22;8353;47.856;12.344;2024-03-08T15:02:55;14.20;99.90
16485;DHT22;8353;47.856;12.344;2024-03-08T15:05:26;14.10;99.90
16485;DHT22;8353;47.856;12.344;2024-03-08T15:07:57;14.00;99.90
16485;DHT22;8353;47.856;12.344;2024-03-08T15:10:28;14.00;99.90
16485;DHT22;8353;47.856;12.344;2024-03-08T15:13:02;13.90;99.90
16485;DHT22;8353;47.856;12.344;2024-03-08T15:15:43;13.70;99.90
16485;DHT22;8353;47.856;12.344;2024-03-08T15:18:14;13.70;99.90
16485;DHT22;8353;47.856;12.344;2024-03-08T15:20:46;13.80;99.90
16485;DHT22;8353;47.856;12.344;2024-03-08T15:23:17;13.70;99.90
16485;DHT22;8353;47.856;12.344;2024-03-08T15:25:47;13.70;99.90
16485;DHT22;8353;47.856;12.344;2024-03-08T15:28:18;13.60;99.90
16485;DHT22;8353;47.856;12.344;2024-03-08T15:30:49;13.70;99.90
16485;DHT22;8353;47.856;12.344;2024-03-08T15:33:24;13.70;99.90
16485;DHT22;8353;47.856;12.344;2024-03-08T15:35:57;13.70;99.90
16485;DHT22;8353;47.856;12.344;2024-03-08T15:38:30;13.60;99.90
16485;DHT22;8353;47.856;12.344;2024-03-08T15:41:00;13.60;99.90
16485;DHT22;8353;47.856;12.344;2024-03-08T15:43:32;13.60;99.90
16485;DHT22;8353;47.856;12.344;2024-03-08T15:46:04;13.60;99.90
16485;DHT22;8353;47.856;12.344;2024-03-08T15:48:36;13.40;99.90
16485;DHT22;8353;47.856;12.344;2024-03-08T15:51:08;13.40;99.90
16485;DHT22;8353;47.856;12.344;2024-03-08T15:53:39;13.30;99.90
16485;DHT22;8353;47.856;12.344;2024-03-08T15:56:10;13.30;99.90
16485;DHT22;8353;47.856;12.344;2024-03-08T15:58:40;13.20;99.90
16485;DHT22;8353;47.856;12.344;2024-03-08T16:01:11;13.30;99.90
16485;DHT22;8353;47.856;12.344;2024-03-08T16:03:45;13.10;99.90
16485;DHT22;8353;47.856;12.344;2024-03-08T16:06:20;13.10;99.90
16485;DHT22;8353;47.856;12.344;2024-03-08T16:08:54;13.20;99.90
16485;DHT22;8353;47.856;12.344;2024-03-08T16:11:25;13.10;99.90
16485;DHT22;8353;47.856;12.344;2024-03-08T16:13:59;13.20;99.90